PAPM Airport Information

Runway Information
Runway 09 Length 1924 ft width 50 ft
Elevation 15 ft Threshold 0 ft Heading 108
Runway 27 Length 1924 ft Width 50 ft
Elevation 9 ft Threshold 0 ft Heading 288
Runway 13 Length 3304 ft width 50 ft
Elevation 11 ft Threshold 0 ft Heading 154
Runway 31 Length 3304 ft Width 50 ft
Elevation 11 ft Threshold 0 ft Heading 334
Airport Frequencies
Type A/D Name ANCHORAGE Frequency 127.6 MHZ
Type AWOS Name AWOS THREE Frequency 118.375 MHZ
Type CTAF Name CTAF Frequency 122.8 MHZ
Type RDO Name KENAI RDO Frequency 122.5 MHZ
Airport Navaids
Airport Weather Information & NOTAM
ADDS - METARS form results

(1019 UTC 23 March 2019)
Data provider http://aviationweather.gov/metar/data/
 
METAR text: PAPM 230956Z AUTO 08025G31KT 10SM SCT017 SCT028 OVC035 03/02 A2928 RMK AO2 PK WND 08031/0954 RAB08E42 SLP918 P0000 T00330017
Conditions at: PAPM (PLATINUM , AK, US) observed 0956 UTC 23 March 2019
Temperature: 3.3°C (38°F)
Dewpoint: 1.7°C (35°F) [RH = 89%]
Pressure (altimeter): 29.28 inches Hg (991.6 mb)
[Sea-level pressure:  991.8 mb]
Winds: from the E (80 degrees) at 29 MPH (25 knots; 12.9 m/s)
gusting to 36 MPH (31 knots; 15.9 m/s)
Visibility: 10 or more miles (16+ km)
Ceiling: 3500 feet AGL
Clouds: scattered clouds at 1700 feet AGL
scattered clouds at 2800 feet AGL
overcast cloud deck at 3500 feet AGL
Weather: automated observation with no human augmentation;
there may or may not be significant weather present at this time